Time;durP1;ratioP1;P1;durP2;ratioP2;P2;SDS_P1;SDS_P2;PMS_P1;PMS_P2;Temp;Humidity;BMP_temperature;BMP_pressure;BME280_temperature;BME280_humidity;BME280_pressure;Samples;Min_cycle;Max_cycle;Signal;HPM_P1;HPM_P2
2022/05/25 00:00:10;;;;;;;;;;;;;;;21.45;31.13;97922.78;4957726;29;1050;-72
2022/05/25 00:02:38;;;;;;;;;;;;;;;21.52;31.80;97928.22;4957844;29;950;-72
2022/05/25 00:05:07;;;;;;;;;;;;;;;21.57;32.32;97924.06;4957786;29;990;-72
2022/05/25 00:07:33;;;;;;;;;;;;;;;21.77;32.22;97921.09;4941331;29;1043;-72
2022/05/25 00:09:58;;;;;;;;;;;;;;;21.69;32.35;97926.16;4957810;29;1000;-72
2022/05/25 00:12:24;;;;;;;;;;;;;;;21.60;32.32;97923.16;4957580;29;1014;-72
2022/05/25 00:14:49;;;;;;;;;;;;;;;21.63;31.85;97927.94;4972958;28;1114;-72
2022/05/25 00:17:15;;;;;;;;;;;;;;;21.58;31.51;97926.44;4976845;28;1927;-72
2022/05/25 00:22:24;;;;;;;;;;;;;;;21.66;31.13;97926.22;4996178;28;1194;-72
2022/05/25 00:24:50;;;;;;;;;;;;;;;21.56;31.47;97925.31;4996233;28;994;-72
2022/05/25 00:27:17;;;;;;;;;;;;;;;21.41;31.93;97929.78;4996076;28;963;-72
2022/05/25 00:29:43;;;;;;;;;;;;;;;21.34;31.75;97927.91;4980259;28;1103;-72
2022/05/25 00:32:08;;;;;;;;;;;;;;;21.42;31.60;97929.31;4979404;28;983;-72
2022/05/25 00:34:34;;;;;;;;;;;;;;;21.35;31.55;97934.34;4979696;28;918;-73
2022/05/25 00:36:59;;;;;;;;;;;;;;;21.39;31.45;97926.56;4995984;28;1910;-72
2022/05/25 00:39:25;;;;;;;;;;;;;;;21.31;31.33;97923.94;4995569;28;1024;-72
2022/05/25 00:41:50;;;;;;;;;;;;;;;21.31;31.35;97923.94;4978126;28;2368;-72
2022/05/25 00:44:16;;;;;;;;;;;;;;;21.44;31.30;97931.69;4995868;28;979;-72
2022/05/25 00:46:41;;;;;;;;;;;;;;;21.53;31.65;97934.69;4979557;28;1113;-72
2022/05/25 00:49:18;;;;;;;;;;;;;;;21.68;32.13;97930.22;4995336;28;1021;-72
2022/05/25 00:51:46;;;;;;;;;;;;;;;21.83;32.48;97925.75;4979522;28;1036;-72
2022/05/25 00:54:23;;;;;;;;;;;;;;;21.75;32.46;97924.34;4979327;28;1079;-72
2022/05/25 00:56:50;;;;;;;;;;;;;;;21.51;32.23;97920.19;4983054;28;1918;-72
2022/05/25 00:59:19;;;;;;;;;;;;;;;21.65;31.77;97922.63;4995213;28;1038;-72
2022/05/25 01:01:44;;;;;;;;;;;;;;;21.62;31.54;97920.69;4995412;28;929;-72
2022/05/25 01:04:10;;;;;;;;;;;;;;;21.56;31.43;97928.16;4937368;29;1005;-72
2022/05/25 01:06:48;;;;;;;;;;;;;;;21.45;31.79;97921.97;4937200;29;1073;-73
2022/05/25 01:09:31;;;;;;;;;;;;;;;21.39;32.06;97929.41;4937363;29;1052;-72
2022/05/25 01:12:12;;;;;;;;;;;;;;;21.36;31.68;97925.44;4937318;29;1068;-72
2022/05/25 01:14:42;;;;;;;;;;;;;;;21.44;31.49;97920.38;4937215;29;977;-72
2022/05/25 01:17:07;;;;;;;;;;;;;;;21.32;31.68;97924.75;4937239;29;1907;-73
2022/05/25 01:19:51;;;;;;;;;;;;;;;21.37;31.60;97914.91;4937168;29;986;-72
2022/05/25 01:22:35;;;;;;;;;;;;;;;21.48;31.49;97915.41;4937020;29;927;-72
2022/05/25 01:25:10;;;;;;;;;;;;;;;21.41;31.23;97921.28;4937101;29;1032;-72
2022/05/25 01:27:41;;;;;;;;;;;;;;;21.47;31.33;97919.50;4944483;29;943;-72
2022/05/25 01:30:08;;;;;;;;;;;;;;;21.51;31.29;97920.19;4940367;29;940;-72
2022/05/25 01:32:37;;;;;;;;;;;;;;;21.36;31.24;97924.66;4940164;29;1023;-72
2022/05/25 01:35:02;;;;;;;;;;;;;;;21.39;31.58;97929.41;4956051;28;1010;-72
2022/05/25 01:37:32;;;;;;;;;;;;;;;21.35;31.20;97926.69;4964503;28;1979;-72
2022/05/25 01:40:08;;;;;;;;;;;;;;;21.43;31.01;97935.78;4975299;28;1090;-73
2022/05/25 01:42:36;;;;;;;;;;;;;;;21.68;31.68;97924.56;5028480;28;1031;-72
2022/05/25 01:45:02;;;;;;;;;;;;;;;21.78;31.91;97929.13;5036588;28;1029;-72
2022/05/25 01:47:28;;;;;;;;;;;;;;;21.82;32.02;97924.16;5018619;28;1035;-72
2022/05/25 01:49:55;;;;;;;;;;;;;;;21.48;31.97;97926.75;5018726;28;907;-72
2022/05/25 01:52:22;;;;;;;;;;;;;;;21.62;31.57;97931.22;5017314;28;1064;-72
2022/05/25 01:54:50;;;;;;;;;;;;;;;21.60;31.37;97934.47;5033247;28;993;-72
2022/05/25 01:57:15;;;;;;;;;;;;;;;21.45;31.55;97921.97;5033932;28;1984;-73
2022/05/25 01:59:42;;;;;;;;;;;;;;;21.45;31.24;97922.78;5033831;28;1043;-73
2022/05/25 02:04:52;;;;;;;;;;;;;;;21.35;31.60;97934.34;5013420;28;1020;-73
2022/05/25 02:07:17;;;;;;;;;;;;;;;21.24;31.90;97934.63;5013958;28;1147;-72
2022/05/25 02:09:50;;;;;;;;;;;;;;;21.37;31.44;97931.91;5013992;28;1020;-72
2022/05/25 02:12:16;;;;;;;;;;;;;;;21.28;31.57;97929.66;5013921;28;984;-72
2022/05/25 02:14:53;;;;;;;;;;;;;;;21.43;31.41;97941.44;5013800;28;1011;-72
2022/05/25 02:17:24;;;;;;;;;;;;;;;21.38;31.27;97944.81;5013802;28;1981;-72
2022/05/25 02:19:50;;;;;;;;;;;;;;;21.26;31.50;97938.59;5013777;28;967;-72
2022/05/25 02:22:26;;;;;;;;;;;;;;;21.41;31.21;97947.56;5012372;28;999;-72
2022/05/25 02:24:52;;;;;;;;;;;;;;;21.27;31.62;97940.19;4993797;28;1090;-72
2022/05/25 02:27:18;;;;;;;;;;;;;;;21.20;31.39;97934.72;4994351;28;1099;-72
2022/05/25 02:29:47;;;;;;;;;;;;;;;21.67;31.93;97942.00;4994199;28;1198;-72
2022/05/25 02:32:18;;;;;;;;;;;;;;;21.71;32.18;97935.00;4993791;28;1031;-72
2022/05/25 02:34:45;;;;;;;;;;;;;;;21.96;31.74;97945.59;4995294;28;1050;-72
2022/05/25 02:37:10;;;;;;;;;;;;;;;21.67;32.03;97956.97;5035637;28;1918;-72
2022/05/25 02:39:35;;;;;;;;;;;;;;;21.55;31.85;97954.84;5035520;28;998;-73
2022/05/25 02:42:01;;;;;;;;;;;;;;;21.43;31.79;97952.75;5035455;28;1045;-73
2022/05/25 02:44:26;;;;;;;;;;;;;;;21.50;31.75;97953.38;5035643;28;1023;-73
2022/05/25 02:46:52;;;;;;;;;;;;;;;21.43;31.51;97949.94;5035738;28;922;-73
2022/05/25 02:49:17;;;;;;;;;;;;;;;21.46;31.50;97951.88;5035567;28;940;-72
2022/05/25 02:51:43;;;;;;;;;;;;;;;21.44;31.50;97949.47;5035632;28;1030;-72
2022/05/25 02:54:09;;;;;;;;;;;;;;;21.41;31.42;97950.38;5035049;28;1237;-72
2022/05/25 02:56:35;;;;;;;;;;;;;;;21.49;31.26;97962.28;4993669;28;1880;-73
2022/05/25 02:59:00;;;;;;;;;;;;;;;21.36;31.56;97967.09;4993784;28;985;-72
2022/05/25 03:01:26;;;;;;;;;;;;;;;21.43;31.37;97962.03;4977676;28;1078;-72
2022/05/25 03:03:51;;;;;;;;;;;;;;;21.41;31.15;97967.38;4993499;28;931;-72
2022/05/25 03:06:18;;;;;;;;;;;;;;;21.22;31.48;97966.19;4996635;28;954;-72
2022/05/25 03:08:43;;;;;;;;;;;;;;;21.30;31.48;97970.47;4997279;28;971;-72
2022/05/25 03:11:08;;;;;;;;;;;;;;;21.22;31.40;97934.28;4981091;28;1001;-72
2022/05/25 03:13:35;;;;;;;;;;;;;;;21.51;30.94;97966.28;4997502;28;951;-73
2022/05/25 03:16:01;;;;;;;;;;;;;;;21.37;31.26;97972.31;4997053;28;1971;-72
2022/05/25 03:18:26;;;;;;;;;;;;;;;21.35;31.48;97974.81;4981259;28;1000;-72
2022/05/25 03:20:52;;;;;;;;;;;;;;;21.33;31.15;97983.72;4981180;28;950;-73
2022/05/25 03:23:17;;;;;;;;;;;;;;;21.23;31.40;97990.41;4997062;28;967;-73
2022/05/25 03:25:43;;;;;;;;;;;;;;;21.35;31.17;97990.97;4997425;28;1060;-72
2022/05/25 03:28:09;;;;;;;;;;;;;;;21.62;31.75;97985.81;4968046;28;1033;-72
2022/05/25 03:30:34;;;;;;;;;;;;;;;21.64;31.92;98000.31;4977666;28;1068;-72
2022/05/25 03:33:00;;;;;;;;;;;;;;;21.75;32.10;97997.97;4977657;28;1059;-72
2022/05/25 03:35:25;;;;;;;;;;;;;;;21.73;31.63;97994.03;4977866;28;1065;-73
2022/05/25 03:37:51;;;;;;;;;;;;;;;21.81;31.06;98007.56;4977354;28;1907;-72
2022/05/25 03:40:16;;;;;;;;;;;;;;;21.58;31.32;97993.59;4977610;28;1140;-73
2022/05/25 03:42:42;;;;;;;;;;;;;;;21.52;31.44;97989.72;4976962;28;1139;-72
2022/05/25 03:45:08;;;;;;;;;;;;;;;21.47;31.42;97998.75;4993355;28;973;-72
2022/05/25 03:47:33;;;;;;;;;;;;;;;21.33;31.48;98000.69;4977451;28;1072;-72
2022/05/25 03:49:59;;;;;;;;;;;;;;;21.27;31.57;97999.63;4977512;28;993;-73
2022/05/25 03:52:25;;;;;;;;;;;;;;;21.37;31.51;97999.81;4977254;28;1105;-72
2022/05/25 03:54:50;;;;;;;;;;;;;;;21.33;31.39;98006.38;4977174;28;984;-73
2022/05/25 03:57:16;;;;;;;;;;;;;;;21.40;31.22;98004.59;4977045;28;1894;-72
2022/05/25 03:59:41;;;;;;;;;;;;;;;21.49;31.11;98007.59;5021918;28;972;-73
2022/05/25 04:02:07;;;;;;;;;;;;;;;21.37;31.52;97997.00;5003359;28;969;-73
2022/05/25 04:04:32;;;;;;;;;;;;;;;21.24;31.60;98003.34;5038215;28;912;-72
2022/05/25 04:06:58;;;;;;;;;;;;;;;21.25;31.35;98007.78;5038303;28;1030;-72
2022/05/25 04:09:23;;;;;;;;;;;;;;;21.33;31.19;98006.38;5038088;28;992;-72
2022/05/25 04:11:48;;;;;;;;;;;;;;;21.28;31.72;98018.19;5038246;28;1079;-72
2022/05/25 04:14:15;;;;;;;;;;;;;;;21.17;31.54;98009.16;5038429;28;1028;-72
2022/05/25 04:16:44;;;;;;;;;;;;;;;21.31;31.36;98014.50;5037832;28;1914;-73
2022/05/25 04:19:09;;;;;;;;;;;;;;;21.40;31.03;98015.91;5038083;28;887;-72
2022/05/25 04:21:35;;;;;;;;;;;;;;;21.31;31.09;98020.16;5037580;28;911;-72
2022/05/25 04:24:01;;;;;;;;;;;;;;;21.35;31.38;98019.28;5037932;28;963;-73
2022/05/25 04:26:28;;;;;;;;;;;;;;;21.55;31.38;98019.97;5020085;28;908;-72
2022/05/25 04:28:53;;;;;;;;;;;;;;;21.67;31.89;98012.81;5037752;28;1102;-72
2022/05/25 04:31:19;;;;;;;;;;;;;;;21.94;31.82;98009.63;5037730;28;966;-72
2022/05/25 04:33:44;;;;;;;;;;;;;;;21.84;32.10;98017.97;5037824;28;947;-72
2022/05/25 04:36:10;;;;;;;;;;;;;;;21.59;32.30;98017.84;5037328;28;1902;-73
2022/05/25 04:38:36;;;;;;;;;;;;;;;21.59;31.97;98017.84;5019837;28;1491;-73
2022/05/25 04:41:01;;;;;;;;;;;;;;;21.38;32.05;98018.41;5034924;28;975;-72
2022/05/25 04:43:27;;;;;;;;;;;;;;;21.38;32.17;98058.03;5034981;28;1562;-72
2022/05/25 04:45:52;;;;;;;;;;;;;;;21.38;32.00;98024.06;5035540;28;1038;-72
2022/05/25 04:48:23;;;;;;;;;;;;;;;21.38;31.96;98024.06;4995278;28;1132;-73
2022/05/25 04:50:49;;;;;;;;;;;;;;;21.47;31.91;98027.06;4995585;28;891;-72
2022/05/25 04:53:15;;;;;;;;;;;;;;;21.41;31.65;98032.47;4937241;29;1187;-72
2022/05/25 04:58:25;;;;;;;;;;;;;;;21.42;31.80;98041.75;4937572;29;1007;-72
2022/05/25 05:00:50;;;;;;;;;;;;;;;21.43;31.66;98044.13;4937253;29;974;-73
2022/05/25 05:03:16;;;;;;;;;;;;;;;21.37;31.66;98045.13;4937404;29;975;-73
2022/05/25 05:05:41;;;;;;;;;;;;;;;21.33;31.56;98034.66;4937543;29;1085;-72
2022/05/25 05:08:07;;;;;;;;;;;;;;;21.24;31.65;98042.97;4898918;29;1011;-72
2022/05/25 05:10:33;;;;;;;;;;;;;;;21.47;31.20;98049.72;4899004;29;1516;-73
2022/05/25 05:12:59;;;;;;;;;;;;;;;21.44;31.17;98056.25;4882684;29;1081;-73
2022/05/25 05:15:24;;;;;;;;;;;;;;;21.36;31.62;98054.84;4880769;29;1027;-72
2022/05/25 05:17:49;;;;;;;;;;;;;;;21.39;31.25;98065.28;4880793;29;1976;-72
2022/05/25 05:20:35;;;;;;;;;;;;;;;21.46;31.08;98065.13;4861755;29;978;-72
2022/05/25 05:23:01;;;;;;;;;;;;;;;21.28;31.52;98071.94;4877234;29;1080;-72
2022/05/25 05:25:26;;;;;;;;;;;;;;;21.39;31.07;98065.28;4843353;29;1035;-72
2022/05/25 05:27:52;;;;;;;;;;;;;;;21.27;31.59;98066.75;4843066;29;997;-72
2022/05/25 05:30:18;;;;;;;;;;;;;;;21.31;31.28;98070.31;4861247;29;2668;-72
2022/05/25 05:32:44;;;;;;;;;;;;;;;21.41;31.35;98069.25;4862013;29;1009;-73
2022/05/25 05:35:09;;;;;;;;;;;;;;;21.33;31.21;98079.16;4861761;29;1058;-73
2022/05/25 05:38:01;;;;;;;;;;;;;;;21.35;31.02;98075.88;4861780;29;1907;-73
2022/05/25 05:40:27;;;;;;;;;;;;;;;21.26;31.72;98085.75;4843246;29;1059;-72
2022/05/25 05:42:52;;;;;;;;;;;;;;;21.44;32.36;98073.22;4858572;29;1379;-72
2022/05/25 05:45:19;;;;;;;;;;;;;;;21.68;32.54;98071.81;4843098;29;1011;-72
2022/05/25 05:47:51;;;;;;;;;;;;;;;21.71;32.45;98070.94;4843417;29;1003;-72
2022/05/25 05:50:17;;;;;;;;;;;;;;;21.68;32.10;98076.69;4842775;29;1134;-72
2022/05/25 05:52:43;;;;;;;;;;;;;;;21.55;31.84;98076.59;4843093;29;979;-72
2022/05/25 05:55:08;;;;;;;;;;;;;;;21.54;31.94;98077.84;4843017;29;1056;-72
2022/05/25 05:57:35;;;;;;;;;;;;;;;21.53;31.49;98081.91;4878469;29;1931;-73
2022/05/25 06:00:00;;;;;;;;;;;;;;;21.55;31.57;98079.41;4895470;29;996;-72
2022/05/25 06:02:26;;;;;;;;;;;;;;;21.53;31.37;98081.91;4898171;29;1106;-73
2022/05/25 06:04:51;;;;;;;;;;;;;;;21.42;31.51;98087.03;4898660;29;1063;-72
2022/05/25 06:07:16;;;;;;;;;;;;;;;21.32;31.84;98092.50;4900071;29;1640;-73
2022/05/25 06:09:42;;;;;;;;;;;;;;;21.28;32.08;98094.59;4917535;29;1003;-73
2022/05/25 06:12:07;;;;;;;;;;;;;;;21.19;31.96;98097.25;4917187;29;1103;-72
2022/05/25 06:14:33;;;;;;;;;;;;;;;21.36;31.83;98092.44;4917296;29;1268;-73
2022/05/25 06:19:43;;;;;;;;;;;;;;;21.28;31.98;98100.25;4936322;29;1087;-72
2022/05/25 06:22:10;;;;;;;;;;;;;;;21.43;31.69;98094.28;4936351;29;1017;-73
2022/05/25 06:24:39;;;;;;;;;;;;;;;21.24;31.85;98110.06;4956344;28;1103;-73
2022/05/25 06:27:08;;;;;;;;;;;;;;;21.33;32.08;98099.75;4979856;28;1558;-72
2022/05/25 06:29:34;;;;;;;;;;;;;;;21.37;31.85;98107.38;4994301;28;939;-73
2022/05/25 06:32:00;;;;;;;;;;;;;;;21.35;31.88;98121.16;4996410;28;1186;-73
2022/05/25 06:34:26;;;;;;;;;;;;;;;21.29;32.00;98113.16;5001701;28;1226;-72
2022/05/25 06:36:51;;;;;;;;;;;;;;;21.22;31.94;98116.16;5002751;28;1910;-73
2022/05/25 06:39:17;;;;;;;;;;;;;;;21.30;31.89;98114.03;5003146;28;1226;-72
2022/05/25 06:41:42;;;;;;;;;;;;;;;21.43;31.76;98116.94;5005250;28;1242;-73
2022/05/25 06:44:08;;;;;;;;;;;;;;;21.39;31.60;98116.22;4964731;28;1394;-73
2022/05/25 06:46:33;;;;;;;;;;;;;;;21.27;31.77;98129.81;4998085;28;1035;-72
2022/05/25 06:48:58;;;;;;;;;;;;;;;21.28;31.58;98117.25;5016122;28;1344;-73
2022/05/25 06:51:28;;;;;;;;;;;;;;;21.32;31.67;98123.66;5039242;28;1047;-73
2022/05/25 06:53:53;;;;;;;;;;;;;;;21.19;32.12;98117.06;5039719;28;941;-72
2022/05/25 06:56:19;;;;;;;;;;;;;;;21.38;31.54;98125.94;5039442;28;1898;-72
2022/05/25 06:58:44;;;;;;;;;;;;;;;21.35;31.68;98130.47;5038453;28;1434;-72
2022/05/25 07:01:10;;;;;;;;;;;;;;;21.27;31.59;98138.28;4996897;28;1496;-72
2022/05/25 07:03:35;;;;;;;;;;;;;;;21.37;31.38;98141.34;4997463;28;1009;-73
2022/05/25 07:06:04;;;;;;;;;;;;;;;21.30;31.83;98140.28;4997402;28;1060;-73
2022/05/25 07:08:29;;;;;;;;;;;;;;;21.41;31.37;98142.06;4980718;28;1239;-73
2022/05/25 07:10:55;;;;;;;;;;;;;;;21.35;31.46;98135.31;4997430;28;1042;-72
2022/05/25 07:13:21;;;;;;;;;;;;;;;21.36;31.48;98137.72;4997457;28;1035;-72
2022/05/25 07:15:47;;;;;;;;;;;;;;;21.29;31.74;98144.28;4997451;28;1985;-72
2022/05/25 07:18:12;;;;;;;;;;;;;;;21.42;31.44;98138.00;4997332;28;990;-73
2022/05/25 07:20:38;;;;;;;;;;;;;;;21.43;31.41;98134.72;4996374;28;1124;-73
2022/05/25 07:23:03;;;;;;;;;;;;;;;21.49;31.39;98140.66;4996296;28;1406;-72
2022/05/25 07:25:29;;;;;;;;;;;;;;;21.73;31.99;98147.75;4997379;28;1005;-73
2022/05/25 07:27:54;;;;;;;;;;;;;;;21.74;32.51;98143.66;4997366;28;1023;-72
2022/05/25 07:30:20;;;;;;;;;;;;;;;21.89;32.75;98148.97;4997143;28;916;-73
2022/05/25 07:32:45;;;;;;;;;;;;;;;21.67;32.59;98149.53;5028635;28;1229;-72
2022/05/25 07:35:11;;;;;;;;;;;;;;;21.54;32.34;98145.78;5053263;28;1205;-73
2022/05/25 07:37:40;;;;;;;;;;;;;;;21.40;32.50;98146.13;5036593;28;1910;-72
2022/05/25 07:40:07;;;;;;;;;;;;;;;21.39;32.38;98139.66;5036309;28;1553;-73
2022/05/25 07:42:32;;;;;;;;;;;;;;;21.35;32.21;98146.63;5038426;28;1340;-73
2022/05/25 07:44:58;;;;;;;;;;;;;;;21.29;32.26;98152.78;5037254;28;1197;-72
2022/05/25 07:47:24;;;;;;;;;;;;;;;21.39;32.28;98164.34;5037089;28;1360;-72
2022/05/25 07:49:50;;;;;;;;;;;;;;;21.51;32.43;98163.66;5037485;28;1309;-73
2022/05/25 07:52:15;;;;;;;;;;;;;;;21.43;32.23;98168.69;5019423;28;1306;-73
2022/05/25 07:54:42;;;;;;;;;;;;;;;21.74;31.85;98162.69;5037222;28;1603;-69
2022/05/25 07:57:07;;;;;;;;;;;;;;;21.83;32.58;98168.53;5012137;28;1926;-72
2022/05/25 07:59:32;;;;;;;;;;;;;;;21.95;32.98;98176.31;5015082;28;1326;-71
2022/05/25 08:07:27;;;;;;;;;;;;;;;21.98;34.24;98186.00;5001450;28;1503;-73
2022/05/25 08:09:54;;;;;;;;;;;;;;;21.89;33.90;98178.09;5015189;28;1350;-73
2022/05/25 08:12:20;;;;;;;;;;;;;;;21.75;33.95;98179.25;4984645;28;1657;-73
2022/05/25 08:14:45;;;;;;;;;;;;;;;21.90;33.19;98190.22;4974305;28;1499;-73
2022/05/25 08:17:11;;;;;;;;;;;;;;;21.71;33.42;98189.88;4996323;28;1981;-73
2022/05/25 08:19:38;;;;;;;;;;;;;;;21.72;33.08;98194.31;4996412;28;986;-73
2022/05/25 08:22:04;;;;;;;;;;;;;;;21.64;33.12;98192.88;4996178;28;1050;-73
2022/05/25 08:24:30;;;;;;;;;;;;;;;21.70;32.84;98190.31;4980015;28;999;-73
2022/05/25 08:26:55;;;;;;;;;;;;;;;21.70;32.68;98196.75;4996355;28;970;-73
2022/05/25 08:29:24;;;;;;;;;;;;;;;21.66;32.58;98190.41;5015877;28;1004;-73
2022/05/25 08:31:53;;;;;;;;;;;;;;;21.58;32.82;98192.59;5015221;28;1167;-73
2022/05/25 08:34:18;;;;;;;;;;;;;;;21.66;32.49;98198.91;4957489;29;1001;-73
2022/05/25 08:36:44;;;;;;;;;;;;;;;21.57;32.66;98201.53;4956722;29;1976;-73
2022/05/25 08:39:09;;;;;;;;;;;;;;;21.61;32.36;98201.47;4957046;29;959;-73
2022/05/25 08:41:36;;;;;;;;;;;;;;;21.65;32.22;98208.63;4918837;29;1439;-72
2022/05/25 08:44:01;;;;;;;;;;;;;;;21.65;32.08;98211.44;4933639;29;1071;-72
2022/05/25 08:46:27;;;;;;;;;;;;;;;21.58;32.39;98235.06;4921527;29;1001;-73
2022/05/25 08:48:53;;;;;;;;;;;;;;;21.58;31.97;98198.25;4907111;29;1480;-73
2022/05/25 08:51:19;;;;;;;;;;;;;;;21.47;32.39;98205.41;4924016;29;1594;-73
2022/05/25 08:53:45;;;;;;;;;;;;;;;21.66;31.76;98198.91;4928067;29;1526;-72
2022/05/25 08:56:29;;;;;;;;;;;;;;;21.62;31.91;98201.00;4930934;29;1979;-73
2022/05/25 08:59:05;;;;;;;;;;;;;;;21.63;31.85;98199.78;4937323;29;1163;-73
2022/05/25 09:01:32;;;;;;;;;;;;;;;21.52;31.85;98204.91;4937736;29;1135;-73
2022/05/25 09:04:04;;;;;;;;;;;;;;;21.57;31.77;98207.19;4936409;29;929;-73
2022/05/25 09:06:34;;;;;;;;;;;;;;;21.59;31.84;98210.38;4995271;28;1035;-72
2022/05/25 09:09:06;;;;;;;;;;;;;;;21.63;31.48;98205.44;4978904;28;1022;-73
2022/05/25 09:11:42;;;;;;;;;;;;;;;21.61;31.59;98207.91;4998161;28;939;-73
2022/05/25 09:14:11;;;;;;;;;;;;;;;21.74;31.38;98205.97;5034835;28;1085;-73
2022/05/25 09:16:37;;;;;;;;;;;;;;;21.63;31.57;98211.09;5052332;28;1905;-72
2022/05/25 09:19:07;;;;;;;;;;;;;;;21.61;31.66;98224.13;5052241;28;976;-73
2022/05/25 09:21:55;;;;;;;;;;;;;;;21.72;31.59;98211.28;5052101;28;939;-72
2022/05/25 09:24:21;;;;;;;;;;;;;;;21.53;31.52;98212.13;4994998;28;1074;-73
2022/05/25 09:26:47;;;;;;;;;;;;;;;21.50;31.66;98213.00;4994984;28;1010;-73
2022/05/25 09:29:13;;;;;;;;;;;;;;;21.56;31.43;98202.78;4978938;28;1088;-73
2022/05/25 09:31:41;;;;;;;;;;;;;;;21.59;31.56;98207.53;4995098;28;958;-73
2022/05/25 09:34:08;;;;;;;;;;;;;;;21.55;31.37;98206.81;4978611;28;973;-72
2022/05/25 09:36:47;;;;;;;;;;;;;;;21.52;31.34;98210.56;4994533;28;1914;-73
2022/05/25 09:39:14;;;;;;;;;;;;;;;21.52;31.68;98210.56;4978713;28;975;-72
2022/05/25 09:41:40;;;;;;;;;;;;;;;21.61;31.17;98195.81;4978283;28;1251;-72
2022/05/25 09:44:06;;;;;;;;;;;;;;;21.62;31.27;98198.19;4994536;28;998;-73
2022/05/25 09:46:35;;;;;;;;;;;;;;;21.64;31.09;98207.03;4994611;28;1038;-73
2022/05/25 09:49:04;;;;;;;;;;;;;;;21.63;31.45;98198.97;4978421;28;1039;-72
2022/05/25 09:51:40;;;;;;;;;;;;;;;21.54;31.25;98208.88;4994529;28;1017;-73
2022/05/25 09:54:10;;;;;;;;;;;;;;;21.70;30.86;98204.47;4977260;28;1640;-73
2022/05/25 09:56:39;;;;;;;;;;;;;;;21.57;31.36;98207.19;4977876;28;1918;-73
2022/05/25 09:59:06;;;;;;;;;;;;;;;21.57;31.45;98201.53;4991777;28;926;-72
2022/05/25 10:01:41;;;;;;;;;;;;;;;21.52;31.37;98213.38;5018468;28;1020;-73
2022/05/25 10:04:07;;;;;;;;;;;;;;;21.41;31.65;98198.69;5036169;28;956;-73
2022/05/25 10:06:35;;;;;;;;;;;;;;;21.43;31.48;98201.88;5051476;28;900;-73
2022/05/25 10:09:19;;;;;;;;;;;;;;;21.45;31.48;98196.53;5036151;28;1022;-73
2022/05/25 10:11:45;;;;;;;;;;;;;;;21.47;31.41;98199.75;5036237;28;876;-72
2022/05/25 10:14:24;;;;;;;;;;;;;;;21.59;31.33;98199.06;5034653;28;1824;-73
2022/05/25 10:16:50;;;;;;;;;;;;;;;21.44;31.61;98187.25;5035642;28;1984;-73
2022/05/25 10:19:17;;;;;;;;;;;;;;;21.41;31.43;98198.69;5013718;28;1024;-72
2022/05/25 10:21:49;;;;;;;;;;;;;;;21.36;31.94;98190.72;5013673;28;909;-72
2022/05/25 10:24:25;;;;;;;;;;;;;;;21.38;31.75;98193.88;4980851;28;1246;-73
2022/05/25 10:26:51;;;;;;;;;;;;;;;21.49;31.59;98195.22;4997315;28;972;-73
2022/05/25 10:37:49;;;;;;;;;;;;;;;21.29;31.82;98185.94;4999775;28;1988;-72
2022/05/25 10:40:22;;;;;;;;;;;;;;;21.54;31.27;98193.91;4997156;28;1556;-73
2022/05/25 10:42:50;;;;;;;;;;;;;;;21.33;31.50;98186.72;4974334;28;1114;-72
2022/05/25 10:45:19;;;;;;;;;;;;;;;21.43;31.38;98191.34;4974378;28;959;-72
2022/05/25 10:47:45;;;;;;;;;;;;;;;21.53;31.17;98192.31;4974457;28;1123;-72
2022/05/25 10:50:15;;;;;;;;;;;;;;;21.46;31.18;98181.19;4983637;28;1051;-72
2022/05/25 10:52:43;;;;;;;;;;;;;;;21.50;31.32;98196.03;4994225;28;981;-73
2022/05/25 10:55:08;;;;;;;;;;;;;;;21.61;31.02;98190.94;5010255;28;961;-72
2022/05/25 10:57:48;;;;;;;;;;;;;;;21.43;31.42;98184.88;5009897;28;1919;-72
2022/05/25 11:00:23;;;;;;;;;;;;;;;21.50;31.49;98190.34;4994190;28;961;-72
2022/05/25 11:03:09;;;;;;;;;;;;;;;21.54;31.11;98185.41;5010434;28;986;-73
2022/05/25 11:05:44;;;;;;;;;;;;;;;21.49;31.13;98177.44;5009687;28;1089;-72
2022/05/25 11:08:15;;;;;;;;;;;;;;;21.46;31.15;98186.84;4993365;28;1062;-73
2022/05/25 11:11:01;;;;;;;;;;;;;;;21.43;31.33;98196.19;4993709;28;969;-73
2022/05/25 11:13:43;;;;;;;;;;;;;;;21.77;31.93;98192.97;5024642;28;990;-73
2022/05/25 11:16:18;;;;;;;;;;;;;;;21.77;32.93;98190.94;5050309;28;1967;-72
2022/05/25 11:18:50;;;;;;;;;;;;;;;21.79;33.21;98191.28;5034847;28;1258;-73
2022/05/25 11:21:36;;;;;;;;;;;;;;;21.99;33.75;98193.25;5035075;28;905;-73
2022/05/25 11:24:07;;;;;;;;;;;;;;;21.81;33.83;98200.16;5035170;28;1127;-72
2022/05/25 11:26:45;;;;;;;;;;;;;;;21.76;33.40;98192.19;5036786;28;870;-73
2022/05/25 11:29:26;;;;;;;;;;;;;;;21.51;33.47;98203.31;5038839;28;955;-73
2022/05/25 11:32:00;;;;;;;;;;;;;;;21.63;33.04;98194.09;5039014;28;998;-73
2022/05/25 11:34:34;;;;;;;;;;;;;;;21.65;32.70;98185.97;5054067;28;897;-72
2022/05/25 11:37:19;;;;;;;;;;;;;;;21.70;32.42;98205.25;5053548;28;1898;-73
2022/05/25 11:39:50;;;;;;;;;;;;;;;21.50;32.79;98193.19;5020965;28;968;-73
2022/05/25 11:42:25;;;;;;;;;;;;;;;21.48;32.64;98198.50;5038616;28;1226;-72
2022/05/25 11:44:52;;;;;;;;;;;;;;;21.63;32.28;98199.78;5038401;28;925;-73
2022/05/25 11:47:24;;;;;;;;;;;;;;;21.61;32.16;98188.09;5038898;28;1003;-72
2022/05/25 11:50:09;;;;;;;;;;;;;;;21.60;32.51;98186.47;5038580;28;1001;-72
2022/05/25 11:52:40;;;;;;;;;;;;;;;21.61;31.99;98185.28;5038270;28;967;-74
2022/05/25 11:55:25;;;;;;;;;;;;;;;21.51;32.11;98186.31;5038474;28;1127;-72
2022/05/25 11:57:56;;;;;;;;;;;;;;;21.68;31.83;98187.91;5038524;28;1913;-72
2022/05/25 12:00:40;;;;;;;;;;;;;;;21.33;32.74;98187.50;5053457;28;867;-72
2022/05/25 12:03:24;;;;;;;;;;;;;;;21.37;32.49;98180.97;5053885;28;917;-72
2022/05/25 12:05:58;;;;;;;;;;;;;;;21.43;32.37;98176.38;5038257;28;874;-73
2022/05/25 12:08:35;;;;;;;;;;;;;;;21.48;32.16;98175.88;5038292;28;954;-72
2022/05/25 12:11:01;;;;;;;;;;;;;;;21.41;32.07;98176.84;5038085;28;915;-73
2022/05/25 12:13:33;;;;;;;;;;;;;;;21.63;31.51;98177.13;5038353;28;947;-72
2022/05/25 12:16:05;;;;;;;;;;;;;;;21.62;31.58;98186.84;5053298;28;1910;-72
2022/05/25 12:18:42;;;;;;;;;;;;;;;21.66;31.38;98187.56;5038083;28;1016;-72
2022/05/25 12:21:13;;;;;;;;;;;;;;;21.57;31.52;98184.56;5053303;28;1077;-73
2022/05/25 12:23:40;;;;;;;;;;;;;;;21.63;31.49;98179.94;5053285;28;1059;-72
2022/05/25 12:26:07;;;;;;;;;;;;;;;21.49;31.89;98174.63;5053387;28;943;-73
2022/05/25 12:28:34;;;;;;;;;;;;;;;21.35;31.88;98183.44;5053340;28;1049;-73
2022/05/25 12:31:01;;;;;;;;;;;;;;;21.60;31.42;98183.66;5053046;28;1052;-72
2022/05/25 12:33:26;;;;;;;;;;;;;;;21.47;31.55;98177.09;5053195;28;1104;-73
2022/05/25 12:35:52;;;;;;;;;;;;;;;21.57;31.66;98184.56;5035187;28;1902;-72
2022/05/25 12:38:19;;;;;;;;;;;;;;;21.57;31.47;98174.03;5018762;28;1038;-72
2022/05/25 12:40:48;;;;;;;;;;;;;;;21.48;31.66;98181.53;4995898;28;996;-73
2022/05/25 12:43:32;;;;;;;;;;;;;;;21.43;31.73;98170.72;4937391;29;1040;-72
2022/05/25 12:48:52;;;;;;;;;;;;;;;21.42;31.84;98169.13;4938122;29;990;-72
2022/05/25 12:51:23;;;;;;;;;;;;;;;21.40;31.88;98158.25;4937795;29;1009;-73
2022/05/25 12:53:49;;;;;;;;;;;;;;;21.56;31.45;98157.47;4927630;29;1503;-72
2022/05/25 12:56:17;;;;;;;;;;;;;;;21.44;31.79;98158.16;4927437;29;1915;-73
2022/05/25 12:58:43;;;;;;;;;;;;;;;21.37;32.03;98156.28;4915252;29;1682;-73
2022/05/25 13:01:26;;;;;;;;;;;;;;;21.35;32.02;98161.63;4918727;29;1015;-72
2022/05/25 13:03:54;;;;;;;;;;;;;;;21.42;31.98;98154.97;4902884;29;979;-72
2022/05/25 13:06:22;;;;;;;;;;;;;;;21.32;31.76;98157.59;4918411;29;1023;-73
2022/05/25 13:08:51;;;;;;;;;;;;;;;21.36;31.80;98165.22;4918824;29;1080;-72
2022/05/25 13:11:28;;;;;;;;;;;;;;;21.24;31.80;98161.00;4918202;29;1035;-73
2022/05/25 13:13:54;;;;;;;;;;;;;;;21.36;31.68;98151.09;4938940;28;947;-73
2022/05/25 13:16:37;;;;;;;;;;;;;;;21.50;31.53;98159.22;4975060;28;1906;-72
2022/05/25 13:19:21;;;;;;;;;;;;;;;21.38;31.55;98159.91;5009259;28;1050;-73
2022/05/25 13:21:53;;;;;;;;;;;;;;;21.49;31.38;98149.94;5014421;28;1004;-72
2022/05/25 13:24:25;;;;;;;;;;;;;;;21.41;31.77;98148.53;5014854;28;1031;-73
2022/05/25 13:26:56;;;;;;;;;;;;;;;21.44;31.46;98149.66;5014493;28;992;-72
2022/05/25 13:29:24;;;;;;;;;;;;;;;21.36;31.80;98151.09;5014620;28;954;-72
2022/05/25 13:31:53;;;;;;;;;;;;;;;21.43;31.55;98137.53;4998261;28;1072;-72
2022/05/25 13:34:19;;;;;;;;;;;;;;;21.27;31.83;98137.50;5014406;28;1210;-76